createdAt,value
2018-07-22T00:00:32.507Z,8.50
2018-07-22T00:03:02.463Z,8.33
2018-07-22T00:05:32.248Z,7.53
2018-07-22T00:08:02.021Z,8.15
2018-07-22T00:10:32.206Z,9.25
2018-07-22T00:13:02.012Z,8.88
2018-07-22T00:15:31.864Z,8.50
2018-07-22T00:18:01.770Z,9.65
2018-07-22T00:20:31.648Z,9.50
2018-07-22T00:23:01.743Z,9.10
2018-07-22T00:25:31.624Z,9.28
2018-07-22T00:28:01.367Z,9.50
2018-07-22T00:30:31.126Z,9.73
2018-07-22T00:33:01.209Z,9.50
2018-07-22T00:35:30.930Z,10.10
2018-07-22T00:38:00.745Z,8.88
2018-07-22T00:40:30.481Z,9.80
2018-07-22T00:43:00.387Z,9.50
2018-07-22T00:45:30.268Z,9.93
2018-07-22T00:48:00.241Z,9.40
2018-07-22T00:50:30.001Z,9.35
2018-07-22T00:52:59.948Z,9.18
2018-07-22T00:55:29.702Z,10.05
2018-07-22T00:57:59.762Z,9.03
2018-07-22T01:00:29.622Z,8.90
2018-07-22T01:02:59.766Z,9.03
2018-07-22T01:05:30.148Z,8.85
2018-07-22T01:07:59.884Z,9.13
2018-07-22T01:10:29.524Z,8.95
2018-07-22T01:12:59.344Z,8.93
2018-07-22T01:15:29.066Z,8.70
2018-07-22T01:17:59.121Z,8.23
2018-07-22T01:20:28.981Z,8.03
2018-07-22T01:22:58.847Z,8.80
2018-07-22T01:25:28.607Z,9.18
2018-07-22T01:27:58.496Z,8.43
2018-07-22T01:30:28.185Z,8.85
2018-07-22T01:32:58.048Z,8.38
2018-07-22T01:35:28.400Z,8.15
2018-07-22T01:37:58.061Z,9.13
2018-07-22T01:40:27.834Z,9.33
2018-07-22T01:42:57.641Z,9.33
2018-07-22T01:45:27.884Z,9.58
2018-07-22T01:47:57.609Z,8.98
2018-07-22T01:50:27.347Z,8.80
2018-07-22T01:52:57.123Z,9.73
2018-07-22T01:55:26.677Z,8.75
2018-07-22T01:57:56.740Z,9.40
2018-07-22T02:00:26.540Z,9.88
2018-07-22T02:02:59.803Z,9.18
2018-07-22T02:05:30.744Z,9.15
2018-07-22T02:08:00.491Z,9.28
2018-07-22T02:10:30.168Z,9.03
2018-07-22T02:13:00.000Z,9.60
2018-07-22T02:15:29.999Z,8.73
2018-07-22T02:17:59.749Z,9.10
2018-07-22T02:20:29.503Z,9.43
2018-07-22T02:22:59.492Z,8.93
2018-07-22T02:25:29.069Z,9.48
2018-07-22T02:27:58.950Z,9.50
2018-07-22T02:30:29.851Z,9.05
2018-07-22T02:32:59.622Z,8.95
2018-07-22T02:35:29.494Z,9.50
2018-07-22T02:37:59.440Z,9.30
2018-07-22T02:40:29.084Z,8.98
2018-07-22T02:42:58.967Z,9.08
2018-07-22T02:45:28.722Z,9.45
2018-07-22T02:47:58.563Z,9.45
2018-07-22T02:50:28.287Z,8.48
2018-07-22T02:52:58.069Z,10.20
2018-07-22T02:55:28.191Z,8.88
2018-07-22T02:57:58.147Z,9.30
2018-07-22T03:00:27.884Z,9.60
2018-07-22T03:02:57.684Z,8.63
2018-07-22T03:05:27.440Z,9.35
2018-07-22T03:07:57.270Z,10.28
2018-07-22T03:10:26.925Z,8.40
2018-07-22T03:12:56.720Z,9.28
2018-07-22T03:15:26.321Z,9.43
2018-07-22T03:17:56.124Z,9.25
2018-07-22T03:20:25.696Z,9.08
2018-07-22T03:22:55.489Z,9.83
2018-07-22T03:25:25.221Z,9.18
2018-07-22T03:27:55.312Z,8.73
2018-07-22T03:30:25.048Z,9.03
2018-07-22T03:32:54.809Z,9.00
2018-07-22T03:35:24.516Z,10.08
2018-07-22T03:37:54.267Z,9.83
2018-07-22T03:40:24.096Z,10.60
2018-07-22T03:42:53.995Z,9.78
2018-07-22T03:45:23.618Z,10.03
2018-07-22T03:47:53.526Z,9.93
2018-07-22T03:50:23.238Z,9.35
2018-07-22T03:52:53.319Z,9.70
2018-07-22T03:55:23.132Z,9.55
2018-07-22T03:57:53.532Z,9.23
2018-07-22T04:00:23.252Z,10.10
2018-07-22T04:02:53.217Z,9.58
2018-07-22T04:05:23.034Z,10.10
2018-07-22T04:07:52.884Z,10.40
2018-07-22T04:10:22.804Z,10.45
2018-07-22T04:12:52.962Z,9.55
2018-07-22T04:15:22.654Z,9.53
2018-07-22T04:17:52.495Z,10.53
2018-07-22T04:20:22.270Z,11.00
2018-07-22T04:22:52.169Z,9.83
2018-07-22T04:25:22.050Z,10.68
2018-07-22T04:27:51.887Z,10.55
2018-07-22T04:30:21.664Z,10.48
2018-07-22T04:32:51.543Z,10.53
2018-07-22T04:35:21.352Z,10.20
2018-07-22T04:37:51.116Z,9.73
2018-07-22T04:40:20.885Z,10.18
2018-07-22T04:42:50.645Z,10.00
2018-07-22T04:45:20.452Z,10.08
2018-07-22T04:47:50.363Z,10.15
2018-07-22T04:50:20.203Z,9.65
2018-07-22T04:52:50.044Z,10.55
2018-07-22T04:55:19.785Z,9.23
2018-07-22T04:57:49.640Z,8.98
2018-07-22T05:00:19.647Z,8.93
2018-07-22T05:02:49.554Z,9.68
2018-07-22T05:05:19.307Z,10.20
2018-07-22T05:07:49.926Z,9.78
2018-07-22T05:10:19.586Z,10.08
2018-07-22T05:12:49.706Z,10.32
2018-07-22T05:15:19.646Z,10.03
2018-07-22T05:17:50.486Z,9.85
2018-07-22T05:20:20.405Z,8.78
2018-07-22T05:22:52.263Z,8.88
2018-07-22T05:25:22.002Z,8.28
2018-07-22T05:27:51.824Z,7.70
2018-07-22T05:30:21.664Z,7.95
2018-07-22T05:32:51.547Z,8.10
2018-07-22T05:35:21.438Z,8.00
2018-07-22T05:37:51.327Z,7.87
2018-07-22T05:40:21.190Z,7.78
2018-07-22T05:42:51.008Z,8.10
2018-07-22T05:45:21.849Z,7.53
2018-07-22T05:47:51.502Z,7.60
2018-07-22T05:50:21.410Z,8.13
2018-07-22T05:52:51.049Z,7.65
2018-07-22T05:55:20.810Z,7.45
2018-07-22T05:57:50.489Z,7.42
2018-07-22T06:00:20.269Z,7.28
2018-07-22T06:02:49.969Z,8.05
2018-07-22T06:05:24.232Z,7.35
2018-07-22T06:07:54.290Z,7.25
2018-07-22T06:10:24.110Z,8.40
2018-07-22T06:12:53.810Z,7.35
2018-07-22T06:15:23.689Z,7.60
2018-07-22T06:17:53.369Z,7.37
2018-07-22T06:20:23.550Z,7.72
2018-07-22T06:22:53.229Z,7.28
2018-07-22T06:25:23.309Z,7.70
2018-07-22T06:27:52.929Z,7.40
2018-07-22T06:30:23.010Z,6.58
2018-07-22T06:32:52.729Z,6.83
2018-07-22T06:35:22.770Z,6.40
2018-07-22T06:37:52.470Z,6.83
2018-07-22T06:40:22.652Z,6.80
2018-07-22T06:42:52.310Z,6.87
2018-07-22T06:45:22.271Z,7.03
2018-07-22T06:47:51.969Z,6.92
2018-07-22T06:50:21.711Z,6.87
2018-07-22T06:52:51.449Z,6.90
2018-07-22T06:55:21.350Z,6.62
2018-07-22T06:57:51.023Z,7.03
2018-07-22T07:00:20.986Z,6.87
2018-07-22T07:02:50.710Z,6.75
2018-07-22T07:05:20.746Z,6.85
2018-07-22T07:07:50.591Z,7.12
2018-07-22T07:10:20.570Z,7.05
2018-07-22T07:12:50.249Z,6.67
2018-07-22T07:15:20.170Z,6.15
2018-07-22T07:17:50.013Z,6.30
2018-07-22T07:20:19.868Z,5.92
2018-07-22T07:22:49.676Z,5.67
2018-07-22T07:25:19.449Z,6.30
2018-07-22T07:27:49.269Z,6.03
2018-07-22T07:30:18.977Z,5.65
2018-07-22T07:32:48.649Z,5.72
2018-07-22T07:35:18.509Z,5.20
2018-07-22T07:37:48.209Z,5.75
2018-07-22T07:40:18.129Z,5.80
2018-07-22T07:42:47.810Z,5.67
2018-07-22T07:45:17.590Z,5.25
2018-07-22T07:47:47.608Z,5.42
2018-07-22T07:50:17.369Z,5.53
2018-07-22T07:52:47.148Z,5.15
2018-07-22T07:55:17.220Z,5.15
2018-07-22T07:57:46.964Z,5.15
2018-07-22T08:00:18.017Z,5.20
2018-07-22T08:02:47.809Z,5.10
2018-07-22T08:05:19.448Z,5.22
2018-07-22T08:07:49.508Z,5.33
2018-07-22T08:10:19.508Z,5.15
2018-07-22T08:12:49.388Z,5.45
2018-07-22T08:15:19.208Z,5.40
2018-07-22T08:17:48.808Z,5.10
2018-07-22T08:20:18.769Z,4.83
2018-07-22T08:22:48.789Z,4.95
2018-07-22T08:25:18.648Z,5.25
2018-07-22T08:27:48.608Z,4.50
2018-07-22T08:30:18.652Z,5.10
2018-07-22T08:32:48.789Z,5.47
2018-07-22T08:35:18.650Z,5.03
2018-07-22T08:37:48.549Z,4.83
2018-07-22T08:40:18.452Z,4.95
2018-07-22T08:42:48.130Z,4.70
2018-07-22T08:45:17.961Z,4.80
2018-07-22T08:47:47.701Z,4.87
2018-07-22T08:50:17.807Z,4.92
2018-07-22T08:52:47.724Z,4.97
2018-07-22T08:55:17.391Z,4.70
2018-07-22T08:58:08.830Z,4.37
2018-07-22T09:00:49.680Z,4.45
2018-07-22T09:03:29.744Z,4.45
2018-07-22T09:05:59.603Z,4.05
2018-07-22T09:08:29.070Z,4.10
2018-07-22T09:11:03.533Z,3.37
2018-07-22T09:13:36.206Z,2.33
2018-07-22T09:16:06.849Z,3.37
2018-07-22T09:18:36.720Z,3.12
2018-07-22T09:21:06.615Z,3.05
2018-07-22T09:23:36.184Z,3.15
2018-07-22T09:26:09.954Z,3.27
2018-07-22T09:28:39.735Z,3.20
2018-07-22T09:31:09.647Z,2.98
2018-07-22T09:33:39.211Z,3.20
2018-07-22T09:36:09.228Z,3.42
2018-07-22T09:38:38.871Z,3.02
2018-07-22T09:41:08.776Z,2.55
2018-07-22T09:43:38.576Z,2.08
2018-07-22T09:46:09.649Z,2.25
2018-07-22T09:48:41.524Z,2.50
2018-07-22T09:51:11.868Z,2.60
2018-07-22T09:53:49.186Z,2.55
2018-07-22T09:56:19.449Z,2.22
2018-07-22T09:58:49.290Z,2.55
2018-07-22T10:01:19.357Z,2.77
2018-07-22T10:03:51.029Z,3.00
2018-07-22T10:06:40.192Z,3.02
2018-07-22T10:09:12.561Z,3.12
2018-07-22T10:11:46.701Z,2.98
2018-07-22T10:14:28.225Z,3.50
2018-07-22T10:17:01.095Z,3.20
2018-07-22T10:19:31.452Z,3.62
2018-07-22T10:22:11.899Z,3.35
2018-07-22T10:24:57.462Z,3.60
2018-07-22T10:27:30.233Z,3.25
2018-07-22T10:30:03.585Z,3.75
2018-07-22T10:32:38.476Z,4.12
2018-07-22T10:35:16.939Z,3.65
2018-07-22T10:37:51.461Z,3.67
2018-07-22T10:40:39.405Z,3.52
2018-07-22T10:43:18.805Z,3.80
2018-07-22T10:46:00.183Z,3.47
2018-07-22T10:48:41.518Z,2.85
2018-07-22T10:51:11.609Z,2.83
2018-07-22T10:53:55.369Z,2.95
2018-07-22T10:56:26.597Z,2.87
2018-07-22T10:58:59.079Z,3.10
2018-07-22T11:01:30.898Z,3.10
2018-07-22T11:04:04.930Z,3.35
2018-07-22T11:06:44.694Z,3.10
2018-07-22T11:09:22.346Z,2.98
2018-07-22T11:12:00.834Z,2.55
2018-07-22T11:14:49.892Z,2.40
2018-07-22T11:17:29.733Z,2.42
2018-07-22T11:20:08.768Z,2.75
2018-07-22T11:22:39.736Z,2.35
2018-07-22T11:25:18.550Z,2.47
2018-07-22T11:27:53.577Z,2.50
2018-07-22T11:30:24.002Z,2.60
2018-07-22T11:32:58.321Z,2.72
2018-07-22T11:35:28.339Z,2.60
2018-07-22T11:38:03.668Z,2.70
2018-07-22T11:40:33.953Z,2.70
2018-07-22T11:43:04.090Z,2.20
2018-07-22T11:45:34.168Z,2.52
2018-07-22T11:48:03.962Z,2.22
2018-07-22T11:50:33.745Z,2.37
2018-07-22T11:53:04.022Z,2.08
2018-07-22T11:55:33.932Z,2.17
2018-07-22T11:58:03.789Z,1.90
2018-07-22T12:00:34.014Z,2.12
2018-07-22T12:03:04.014Z,1.92
2018-07-22T12:05:34.290Z,1.80
2018-07-22T12:08:04.433Z,2.17
2018-07-22T12:10:34.513Z,2.40
2018-07-22T12:13:04.316Z,2.62
2018-07-22T12:15:34.261Z,2.98
2018-07-22T12:18:04.570Z,2.52
2018-07-22T12:20:34.459Z,2.15
2018-07-22T12:23:04.374Z,2.42
2018-07-22T12:25:34.444Z,2.30
2018-07-22T12:28:04.319Z,2.20
2018-07-22T12:30:34.270Z,2.10
2018-07-22T12:33:04.354Z,2.25
2018-07-22T12:35:34.237Z,2.10
2018-07-22T12:38:03.978Z,1.67
2018-07-22T12:40:33.835Z,1.70
2018-07-22T12:43:03.958Z,1.85
2018-07-22T12:45:34.386Z,1.90
2018-07-22T12:48:04.472Z,1.72
2018-07-22T12:50:38.743Z,1.75
2018-07-22T12:53:09.863Z,3.20
2018-07-22T12:55:40.056Z,2.77
2018-07-22T12:58:09.861Z,3.50
2018-07-22T13:00:39.706Z,3.55
2018-07-22T13:03:09.523Z,3.70
2018-07-22T13:05:39.374Z,3.67
2018-07-22T13:08:09.401Z,3.45
2018-07-22T13:10:39.217Z,3.17
2018-07-22T13:13:09.317Z,3.67
2018-07-22T13:15:39.316Z,4.47
2018-07-22T13:18:09.064Z,3.75
2018-07-22T13:20:39.206Z,4.17
2018-07-22T13:23:10.064Z,2.95
2018-07-22T13:25:40.022Z,3.20
2018-07-22T13:28:09.676Z,4.15
2018-07-22T13:30:40.416Z,3.98
2018-07-22T13:33:10.597Z,3.65
2018-07-22T13:35:40.738Z,3.10
2018-07-22T13:38:10.577Z,2.55
2018-07-22T13:40:41.103Z,3.47
2018-07-22T13:43:11.065Z,3.22
2018-07-22T13:45:40.880Z,3.20
2018-07-22T13:48:10.978Z,3.45
2018-07-22T13:50:40.757Z,3.10
2018-07-22T13:53:10.557Z,2.85
2018-07-22T13:55:40.258Z,3.17
2018-07-22T13:58:10.239Z,3.00
2018-07-22T14:00:40.038Z,3.15
2018-07-22T14:03:10.181Z,2.92
2018-07-22T14:05:40.140Z,3.17
2018-07-22T14:08:10.366Z,2.70
2018-07-22T14:10:40.390Z,2.85
2018-07-22T14:13:10.287Z,2.80
2018-07-22T14:15:40.132Z,2.52
2018-07-22T14:18:10.207Z,3.05
2018-07-22T14:20:40.341Z,2.65
2018-07-22T14:23:22.203Z,2.50
2018-07-22T14:25:52.048Z,2.40
2018-07-22T14:28:21.868Z,2.47
2018-07-22T14:30:51.663Z,2.50
2018-07-22T14:33:21.721Z,2.90
2018-07-22T14:35:51.223Z,2.60
2018-07-22T14:38:21.061Z,2.98
2018-07-22T14:40:51.046Z,2.72
2018-07-22T14:43:21.125Z,2.67
2018-07-22T14:45:50.828Z,2.30
2018-07-22T14:48:21.016Z,2.25
2018-07-22T14:50:50.768Z,2.00
2018-07-22T14:55:50.485Z,1.70
2018-07-22T14:58:20.450Z,2.00
2018-07-22T15:00:50.688Z,2.22
2018-07-22T15:03:20.595Z,2.27
2018-07-22T15:05:50.448Z,2.25
2018-07-22T15:08:20.658Z,2.30
2018-07-22T15:10:50.509Z,2.30
2018-07-22T15:13:28.498Z,2.72
2018-07-22T15:15:58.754Z,2.50
2018-07-22T15:18:33.761Z,2.40
2018-07-22T15:21:03.827Z,2.20
2018-07-22T15:23:35.196Z,2.40
2018-07-22T15:26:05.712Z,2.50
2018-07-22T15:28:37.501Z,1.90
2018-07-22T15:31:07.958Z,1.80
2018-07-22T15:33:41.815Z,1.62
2018-07-22T15:36:11.982Z,1.80
2018-07-22T15:38:41.779Z,1.65
2018-07-22T15:41:12.114Z,1.70
2018-07-22T15:43:56.036Z,1.75
2018-07-22T15:46:42.799Z,1.70
2018-07-22T15:49:27.624Z,1.47
2018-07-22T15:52:08.426Z,1.60
2018-07-22T15:54:48.730Z,1.50
2018-07-22T15:57:19.242Z,1.50
2018-07-22T15:59:58.981Z,1.42
2018-07-22T16:02:45.199Z,1.30
2018-07-22T16:05:17.912Z,1.57
2018-07-22T16:07:49.143Z,2.10
2018-07-22T16:10:19.636Z,1.42
2018-07-22T16:12:50.405Z,1.50
2018-07-22T16:15:32.951Z,1.47
2018-07-22T16:18:18.473Z,1.45
2018-07-22T16:20:57.969Z,1.55
2018-07-22T16:23:39.689Z,1.70
2018-07-22T16:26:11.368Z,1.77
2018-07-22T16:28:43.317Z,1.50
2018-07-22T16:31:33.081Z,1.67
2018-07-22T16:34:27.645Z,2.27
2018-07-22T16:37:08.809Z,1.87
2018-07-22T16:39:53.273Z,2.17
2018-07-22T16:42:31.911Z,2.33
2018-07-22T16:45:02.059Z,2.80
2018-07-22T16:47:32.259Z,2.72
2018-07-22T16:50:02.268Z,3.12
2018-07-22T16:52:33.397Z,3.60
2018-07-22T16:55:03.122Z,3.17
2018-07-22T16:57:33.898Z,3.12
2018-07-22T17:03:59.242Z,3.42
2018-07-22T17:06:43.457Z,3.12
2018-07-22T17:15:40.118Z,3.45
2018-07-22T17:18:11.652Z,3.33
2018-07-22T17:20:42.109Z,2.80
2018-07-22T17:23:15.264Z,2.80
2018-07-22T17:25:48.035Z,2.72
2018-07-22T17:28:19.971Z,2.60
2018-07-22T17:30:51.368Z,2.72
2018-07-22T17:33:21.458Z,2.90
2018-07-22T17:35:51.425Z,3.27
2018-07-22T17:38:22.204Z,3.50
2018-07-22T17:40:52.265Z,3.20
2018-07-22T17:43:22.488Z,3.40
2018-07-22T17:45:52.191Z,2.90
2018-07-22T17:48:23.365Z,3.37
2018-07-22T17:50:59.608Z,3.00
2018-07-22T17:53:29.443Z,3.12
2018-07-22T17:55:59.189Z,3.22
2018-07-22T17:58:30.041Z,3.55
2018-07-22T18:01:00.086Z,3.60
2018-07-22T18:03:32.475Z,3.70
2018-07-22T18:06:03.319Z,4.08
2018-07-22T18:08:33.338Z,5.08
2018-07-22T18:11:03.019Z,4.37
2018-07-22T18:13:33.099Z,4.20
2018-07-22T18:16:06.493Z,4.17
2018-07-22T18:18:36.964Z,4.53
2018-07-22T18:21:08.138Z,5.42
2018-07-22T18:23:42.867Z,4.47
2018-07-22T18:26:14.757Z,4.83
2018-07-22T18:28:49.283Z,4.80
2018-07-22T18:31:21.013Z,4.67
2018-07-22T18:33:52.894Z,4.30
2018-07-22T18:36:24.228Z,3.62
2018-07-22T18:38:57.059Z,3.70
2018-07-22T18:41:28.873Z,4.03
2018-07-22T18:44:01.975Z,3.90
2018-07-22T18:46:34.938Z,4.00
2018-07-22T18:49:07.997Z,3.72
2018-07-22T18:58:29.584Z,5.30
2018-07-22T19:01:16.332Z,5.10
2018-07-22T19:04:14.264Z,5.58
2018-07-22T19:07:42.492Z,5.80
2018-07-22T19:10:35.875Z,5.78
2018-07-22T19:16:29.036Z,5.75
2018-07-22T19:18:59.555Z,5.58
2018-07-22T19:21:30.459Z,6.30
2018-07-22T19:24:05.816Z,5.65
2018-07-22T19:26:38.038Z,6.17
2018-07-22T19:29:10.385Z,6.30
2018-07-22T19:31:43.859Z,6.70
2018-07-22T19:37:35.623Z,6.05
2018-07-22T19:40:22.408Z,6.33
2018-07-22T19:42:54.632Z,7.35
2018-07-22T19:45:26.747Z,6.50
2018-07-22T19:48:05.157Z,6.70
2018-07-22T19:51:10.428Z,7.55
2018-07-22T19:53:41.709Z,6.95
2018-07-22T19:56:56.533Z,7.30
2018-07-22T19:59:30.516Z,7.42
2018-07-22T20:02:02.987Z,7.78
2018-07-22T20:08:11.536Z,8.05
2018-07-22T20:10:56.507Z,8.25
2018-07-22T20:13:27.728Z,8.48
2018-07-22T20:15:58.349Z,8.83
2018-07-22T20:18:32.752Z,8.63
2018-07-22T20:21:09.838Z,8.68
2018-07-22T20:23:43.362Z,9.00
2018-07-22T20:26:43.663Z,7.97
2018-07-22T20:29:23.753Z,8.43
2018-07-22T20:32:03.536Z,7.87
2018-07-22T20:34:52.932Z,8.48
2018-07-22T20:37:39.086Z,10.25
2018-07-22T20:41:03.459Z,9.08
2018-07-22T20:43:44.130Z,8.95
2018-07-22T20:46:19.709Z,8.80
2018-07-22T20:48:54.708Z,9.03
2018-07-22T20:51:42.593Z,8.65
2018-07-22T20:54:15.779Z,8.60
2018-07-22T20:56:51.453Z,9.95
2018-07-22T20:59:24.513Z,10.40
2018-07-22T21:01:59.473Z,10.15
2018-07-22T21:04:34.185Z,10.50
2018-07-22T21:07:21.001Z,11.73
2018-07-22T21:09:52.329Z,10.55
2018-07-22T21:12:41.907Z,10.60
2018-07-22T21:15:18.138Z,11.08
2018-07-22T21:17:53.003Z,11.55
2018-07-22T21:23:48.130Z,11.00
2018-07-22T21:29:28.824Z,10.65
2018-07-22T21:34:35.778Z,9.98
2018-07-22T21:37:47.582Z,11.35
2018-07-22T21:40:20.132Z,11.08
2018-07-22T21:42:52.824Z,10.98
2018-07-22T21:45:24.657Z,11.35
2018-07-22T21:47:54.722Z,11.03
2018-07-22T21:50:26.785Z,11.60
2018-07-22T21:52:58.229Z,12.07
2018-07-22T22:01:52.463Z,11.45
2018-07-22T22:04:28.536Z,11.90
2018-07-22T22:10:41.488Z,11.80
2018-07-22T22:13:12.536Z,11.20
2018-07-22T22:15:47.687Z,12.23
2018-07-22T22:18:18.407Z,12.25
2018-07-22T22:20:52.867Z,13.05
2018-07-22T22:23:23.104Z,11.57
2018-07-22T22:28:27.056Z,12.00
2018-07-22T22:30:57.305Z,12.50
2018-07-22T22:34:17.962Z,12.65
2018-07-22T22:39:22.187Z,12.53
2018-07-22T22:41:52.408Z,12.35
2018-07-22T22:44:56.991Z,13.60
2018-07-22T22:47:38.247Z,12.85
2018-07-22T22:50:08.502Z,13.58
2018-07-22T22:55:15.577Z,13.90
2018-07-22T22:58:11.394Z,13.43
2018-07-22T23:00:43.818Z,13.43
2018-07-22T23:03:14.163Z,13.62
2018-07-22T23:05:44.128Z,16.05
2018-07-22T23:08:14.751Z,14.23
2018-07-22T23:10:53.876Z,13.65
2018-07-22T23:13:24.203Z,15.10
2018-07-22T23:15:54.234Z,14.90
2018-07-22T23:18:28.531Z,15.95
2018-07-22T23:21:02.174Z,15.08
2018-07-22T23:23:35.195Z,16.55
2018-07-22T23:26:05.519Z,15.65
2018-07-22T23:28:35.658Z,15.23
2018-07-22T23:31:06.946Z,15.60
2018-07-22T23:33:37.527Z,16.35
2018-07-22T23:36:09.094Z,15.30
2018-07-22T23:38:40.196Z,16.52
2018-07-22T23:41:12.689Z,16.35
2018-07-22T23:43:45.586Z,15.85
2018-07-22T23:46:16.250Z,15.78
2018-07-22T23:48:45.769Z,14.35
2018-07-22T23:51:17.025Z,16.20
2018-07-22T23:53:46.747Z,17.50
2018-07-22T23:56:18.815Z,16.60
2018-07-22T23:58:52.304Z,16.23
